sensor_id;sensor_type;location;lat;lon;timestamp;pressure;altitude;pressure_sealevel;temperature;humidity
40994;BME280;26722;43.212;27.932;2023-04-03T00:00:38;55137.22;;;-146.72;65.74
40994;BME280;26722;43.212;27.932;2023-04-03T00:03:03;55132.97;;;-146.72;65.41
40994;BME280;26722;43.212;27.932;2023-04-03T00:05:29;55158.31;;;-146.72;65.59
40994;BME280;26722;43.212;27.932;2023-04-03T00:07:55;55141.44;;;-146.72;65.14
40994;BME280;26722;43.212;27.932;2023-04-03T00:10:21;55145.66;;;-146.72;64.38
40994;BME280;26722;43.212;27.932;2023-04-03T00:12:46;55128.75;;;-146.72;64.18
40994;BME280;26722;43.212;27.932;2023-04-03T00:15:12;55149.88;;;-146.72;63.84
40994;BME280;26722;43.212;27.932;2023-04-03T00:17:37;55141.44;;;-146.72;63.68
40994;BME280;26722;43.212;27.932;2023-04-03T00:20:03;55126.66;;;-146.72;63.19
40994;BME280;26722;43.212;27.932;2023-04-03T00:22:30;55126.66;;;-146.72;62.88
40994;BME280;26722;43.212;27.932;2023-04-03T00:24:55;55124.53;;;-146.72;62.83
40994;BME280;26722;43.212;27.932;2023-04-03T00:27:21;55126.66;;;-146.72;62.33
40994;BME280;26722;43.212;27.932;2023-04-03T00:29:47;55124.53;;;-146.72;62.69
40994;BME280;26722;43.212;27.932;2023-04-03T00:32:12;55116.09;;;-146.72;62.31
40994;BME280;26722;43.212;27.932;2023-04-03T00:34:38;55113.97;;;-146.72;62.39
40994;BME280;26722;43.212;27.932;2023-04-03T00:37:03;55154.09;;;-146.72;62.67
40994;BME280;26722;43.212;27.932;2023-04-03T00:39:29;55128.75;;;-146.72;62.60
40994;BME280;26722;43.212;27.932;2023-04-03T00:41:55;55162.53;;;-146.72;63.15
40994;BME280;26722;43.212;27.932;2023-04-03T00:45:24;55141.44;;;-146.72;63.36
40994;BME280;26722;43.212;27.932;2023-04-03T00:47:11;55124.53;;;-146.72;63.56
40994;BME280;26722;43.212;27.932;2023-04-03T00:49:38;55130.88;;;-146.72;63.50
40994;BME280;26722;43.212;27.932;2023-04-03T00:52:05;55107.66;;;-146.72;63.97
40994;BME280;26722;43.212;27.932;2023-04-03T00:54:34;55154.09;;;-146.72;64.08
40994;BME280;26722;43.212;27.932;2023-04-03T00:57:01;55145.66;;;-146.72;64.12
40994;BME280;26722;43.212;27.932;2023-04-03T00:59:30;55137.22;;;-146.72;64.48
40994;BME280;26722;43.212;27.932;2023-04-03T01:01:58;55137.22;;;-146.72;64.66
40994;BME280;26722;43.212;27.932;2023-04-03T01:04:32;55149.88;;;-146.72;64.81
40994;BME280;26722;43.212;27.932;2023-04-03T01:07:45;55149.88;;;-146.72;64.45
40994;BME280;26722;43.212;27.932;2023-04-03T01:09:47;55149.88;;;-146.72;64.95
40994;BME280;26722;43.212;27.932;2023-04-03T01:12:21;55154.09;;;-146.72;65.25
40994;BME280;26722;43.212;27.932;2023-04-03T01:14:56;55132.97;;;-146.72;65.17
40994;BME280;26722;43.212;27.932;2023-04-03T01:17:36;55149.88;;;-146.72;64.92
40994;BME280;26722;43.212;27.932;2023-04-03T01:22:55;55139.31;;;-146.72;64.75
40994;BME280;26722;43.212;27.932;2023-04-03T01:25:22;55151.97;;;-146.72;64.89
40994;BME280;26722;43.212;27.932;2023-04-03T01:27:47;55132.97;;;-146.72;64.92
40994;BME280;26722;43.212;27.932;2023-04-03T01:30:17;55116.09;;;-146.72;64.51
40994;BME280;26722;43.212;27.932;2023-04-03T01:32:43;55139.31;;;-146.72;64.18
40994;BME280;26722;43.212;27.932;2023-04-03T01:35:09;55137.22;;;-146.72;64.79
40994;BME280;26722;43.212;27.932;2023-04-03T01:37:34;55132.97;;;-146.72;64.53
40994;BME280;26722;43.212;27.932;2023-04-03T01:40:00;55137.22;;;-146.72;65.06
40994;BME280;26722;43.212;27.932;2023-04-03T01:42:25;55139.31;;;-146.72;64.92
40994;BME280;26722;43.212;27.932;2023-04-03T01:44:51;55164.66;;;-146.72;65.53
40994;BME280;26722;43.212;27.932;2023-04-03T01:47:16;55156.22;;;-146.72;65.77
40994;BME280;26722;43.212;27.932;2023-04-03T01:49:42;55166.75;;;-146.72;66.58
40994;BME280;26722;43.212;27.932;2023-04-03T01:52:07;55162.53;;;-146.72;67.72
40994;BME280;26722;43.212;27.932;2023-04-03T01:54:33;55175.22;;;-146.72;69.20
40994;BME280;26722;43.212;27.932;2023-04-03T01:56:58;55177.31;;;-146.72;70.33
40994;BME280;26722;43.212;27.932;2023-04-03T01:59:24;55175.22;;;-146.72;71.28
40994;BME280;26722;43.212;27.932;2023-04-03T02:01:49;55192.09;;;-146.72;72.43
40994;BME280;26722;43.212;27.932;2023-04-03T02:04:16;55187.88;;;-146.72;73.08
40994;BME280;26722;43.212;27.932;2023-04-03T02:06:42;55179.44;;;-146.72;73.27
40994;BME280;26722;43.212;27.932;2023-04-03T02:09:07;55181.53;;;-146.72;73.91
40994;BME280;26722;43.212;27.932;2023-04-03T02:11:33;55175.22;;;-146.72;74.93
40994;BME280;26722;43.212;27.932;2023-04-03T02:13:58;55170.97;;;-146.72;75.90
40994;BME280;26722;43.212;27.932;2023-04-03T02:16:24;55170.97;;;-146.72;75.93
40994;BME280;26722;43.212;27.932;2023-04-03T02:18:49;55168.88;;;-146.72;76.30
40994;BME280;26722;43.212;27.932;2023-04-03T02:21:15;55164.66;;;-146.72;76.00
40994;BME280;26722;43.212;27.932;2023-04-03T02:23:41;55170.97;;;-146.72;75.34
40994;BME280;26722;43.212;27.932;2023-04-03T02:26:09;55162.53;;;-146.72;74.62
40994;BME280;26722;43.212;27.932;2023-04-03T02:28:35;55162.53;;;-146.72;73.98
40994;BME280;26722;43.212;27.932;2023-04-03T02:31:00;55158.31;;;-146.72;73.43
40994;BME280;26722;43.212;27.932;2023-04-03T02:33:26;55170.97;;;-146.72;73.08
40994;BME280;26722;43.212;27.932;2023-04-03T02:35:55;55162.53;;;-146.72;72.45
40994;BME280;26722;43.212;27.932;2023-04-03T02:38:22;55160.44;;;-146.72;71.89
40994;BME280;26722;43.212;27.932;2023-04-03T02:40:47;55151.97;;;-146.72;71.06
40994;BME280;26722;43.212;27.932;2023-04-03T02:43:13;55156.22;;;-146.72;69.90
40994;BME280;26722;43.212;27.932;2023-04-03T02:45:38;55154.09;;;-146.72;68.37
40994;BME280;26722;43.212;27.932;2023-04-03T02:48:05;55145.66;;;-146.72;67.86
40994;BME280;26722;43.212;27.932;2023-04-03T02:50:30;55141.44;;;-146.72;67.52
40994;BME280;26722;43.212;27.932;2023-04-03T02:52:56;55149.88;;;-146.72;67.28
40994;BME280;26722;43.212;27.932;2023-04-03T02:55:21;55147.75;;;-146.72;66.41
40994;BME280;26722;43.212;27.932;2023-04-03T02:57:47;55126.66;;;-146.72;65.92
40994;BME280;26722;43.212;27.932;2023-04-03T03:00:12;55151.97;;;-146.72;65.09
40994;BME280;26722;43.212;27.932;2023-04-03T03:02:40;55128.75;;;-146.72;64.69
40994;BME280;26722;43.212;27.932;2023-04-03T03:05:05;55137.22;;;-146.72;64.50
40994;BME280;26722;43.212;27.932;2023-04-03T03:07:31;55130.88;;;-146.72;64.52
40994;BME280;26722;43.212;27.932;2023-04-03T03:09:57;55145.66;;;-146.72;63.93
40994;BME280;26722;43.212;27.932;2023-04-03T03:12:23;55120.31;;;-146.72;63.17
40994;BME280;26722;43.212;27.932;2023-04-03T03:14:50;55145.66;;;-146.72;62.62
40994;BME280;26722;43.212;27.932;2023-04-03T03:17:16;55149.88;;;-146.72;62.69
40994;BME280;26722;43.212;27.932;2023-04-03T03:19:41;55154.09;;;-146.72;63.00
40994;BME280;26722;43.212;27.932;2023-04-03T03:22:07;55154.09;;;-146.72;63.24
40994;BME280;26722;43.212;27.932;2023-04-03T03:24:32;55149.88;;;-146.72;63.46
40994;BME280;26722;43.212;27.932;2023-04-03T03:26:58;55168.88;;;-146.72;64.55
40994;BME280;26722;43.212;27.932;2023-04-03T03:29:24;55154.09;;;-146.72;65.34
40994;BME280;26722;43.212;27.932;2023-04-03T03:31:49;55162.53;;;-146.72;66.34
40994;BME280;26722;43.212;27.932;2023-04-03T03:34:15;55183.66;;;-146.72;66.69
40994;BME280;26722;43.212;27.932;2023-04-03T03:36:40;55173.09;;;-146.72;67.36
40994;BME280;26722;43.212;27.932;2023-04-03T03:39:06;55162.53;;;-146.72;68.17
40994;BME280;26722;43.212;27.932;2023-04-03T03:41:32;55175.22;;;-146.72;68.58
40994;BME280;26722;43.212;27.932;2023-04-03T03:43:58;55158.31;;;-146.72;68.86
40994;BME280;26722;43.212;27.932;2023-04-03T03:46:23;55183.66;;;-146.72;69.46
40994;BME280;26722;43.212;27.932;2023-04-03T03:48:49;55154.09;;;-146.72;69.16
40994;BME280;26722;43.212;27.932;2023-04-03T03:51:15;55175.22;;;-146.72;69.42
40994;BME280;26722;43.212;27.932;2023-04-03T03:53:40;55179.44;;;-146.72;69.95
40994;BME280;26722;43.212;27.932;2023-04-03T03:56:06;55162.53;;;-146.72;70.42
40994;BME280;26722;43.212;27.932;2023-04-03T03:58:32;55183.66;;;-146.72;70.52
40994;BME280;26722;43.212;27.932;2023-04-03T04:01:01;55175.22;;;-146.72;70.26
40994;BME280;26722;43.212;27.932;2023-04-03T04:03:27;55166.75;;;-146.72;69.94
40994;BME280;26722;43.212;27.932;2023-04-03T04:05:53;55166.75;;;-146.72;69.70
40994;BME280;26722;43.212;27.932;2023-04-03T04:08:18;55181.53;;;-146.72;68.71
40994;BME280;26722;43.212;27.932;2023-04-03T04:10:44;55190.00;;;-146.72;68.47
40994;BME280;26722;43.212;27.932;2023-04-03T04:13:10;55185.75;;;-146.72;67.73
40994;BME280;26722;43.212;27.932;2023-04-03T04:15:35;55170.97;;;-146.72;66.52
40994;BME280;26722;43.212;27.932;2023-04-03T04:18:01;55145.66;;;-146.72;66.00
40994;BME280;26722;43.212;27.932;2023-04-03T04:20:26;55135.09;;;-146.72;65.72
40994;BME280;26722;43.212;27.932;2023-04-03T04:22:52;55160.44;;;-146.72;65.58
40994;BME280;26722;43.212;27.932;2023-04-03T04:25:17;55151.97;;;-146.72;65.37
40994;BME280;26722;43.212;27.932;2023-04-03T04:27:43;55130.88;;;-146.72;64.59
40994;BME280;26722;43.212;27.932;2023-04-03T04:30:09;55151.97;;;-146.72;64.27
40994;BME280;26722;43.212;27.932;2023-04-03T04:32:35;55158.31;;;-146.72;63.60
40994;BME280;26722;43.212;27.932;2023-04-03T04:35:00;55132.97;;;-146.72;63.03
40994;BME280;26722;43.212;27.932;2023-04-03T04:37:26;55113.97;;;-146.72;62.68
40994;BME280;26722;43.212;27.932;2023-04-03T04:39:52;55160.44;;;-146.72;62.67
40994;BME280;26722;43.212;27.932;2023-04-03T04:42:17;55124.53;;;-146.72;62.41
40994;BME280;26722;43.212;27.932;2023-04-03T04:44:43;55137.22;;;-146.72;61.93
40994;BME280;26722;43.212;27.932;2023-04-03T04:47:09;55120.31;;;-146.72;61.83
40994;BME280;26722;43.212;27.932;2023-04-03T04:49:34;55141.44;;;-146.72;61.84
40994;BME280;26722;43.212;27.932;2023-04-03T04:52:00;55149.88;;;-146.72;61.59
40994;BME280;26722;43.212;27.932;2023-04-03T04:54:25;55145.66;;;-146.72;61.27
40994;BME280;26722;43.212;27.932;2023-04-03T04:56:51;55147.75;;;-146.72;61.41
40994;BME280;26722;43.212;27.932;2023-04-03T04:59:16;55135.09;;;-146.72;61.44
40994;BME280;26722;43.212;27.932;2023-04-03T05:01:42;55122.44;;;-146.72;61.55
40994;BME280;26722;43.212;27.932;2023-04-03T05:04:08;55120.31;;;-146.72;61.00
40994;BME280;26722;43.212;27.932;2023-04-03T05:06:34;55103.44;;;-146.72;60.44
40994;BME280;26722;43.212;27.932;2023-04-03T05:09:00;55116.09;;;-146.72;59.47
40994;BME280;26722;43.212;27.932;2023-04-03T05:11:26;55128.75;;;-146.72;59.57
40994;BME280;26722;43.212;27.932;2023-04-03T05:13:52;55122.44;;;-146.72;59.52
40994;BME280;26722;43.212;27.932;2023-04-03T05:16:17;55105.53;;;-146.72;59.22
40994;BME280;26722;43.212;27.932;2023-04-03T05:18:43;55103.44;;;-146.72;59.19
40994;BME280;26722;43.212;27.932;2023-04-03T05:21:09;55126.66;;;-146.72;59.06
40994;BME280;26722;43.212;27.932;2023-04-03T05:23:34;55124.53;;;-146.72;58.65
40994;BME280;26722;43.212;27.932;2023-04-03T05:26:00;55116.09;;;-146.72;58.26
40994;BME280;26722;43.212;27.932;2023-04-03T05:28:25;55103.44;;;-146.72;58.27
40994;BME280;26722;43.212;27.932;2023-04-03T05:30:58;55107.66;;;-146.72;57.75
40994;BME280;26722;43.212;27.932;2023-04-03T05:33:24;55103.44;;;-146.72;57.52
40994;BME280;26722;43.212;27.932;2023-04-03T05:35:51;55105.53;;;-146.72;56.74
40994;BME280;26722;43.212;27.932;2023-04-03T05:38:17;55086.53;;;-146.72;56.64
40994;BME280;26722;43.212;27.932;2023-04-03T05:40:43;55094.97;;;-146.72;56.30
40994;BME280;26722;43.212;27.932;2023-04-03T05:43:08;55097.09;;;-146.72;56.32
40994;BME280;26722;43.212;27.932;2023-04-03T05:45:34;55082.31;;;-146.72;55.99
40994;BME280;26722;43.212;27.932;2023-04-03T05:47:59;55099.19;;;-146.72;56.19
40994;BME280;26722;43.212;27.932;2023-04-03T05:50:25;55090.75;;;-146.72;55.92
40994;BME280;26722;43.212;27.932;2023-04-03T05:52:52;55086.53;;;-146.72;55.96
40994;BME280;26722;43.212;27.932;2023-04-03T05:55:21;55073.88;;;-146.72;55.22
40994;BME280;26722;43.212;27.932;2023-04-03T05:57:46;55084.44;;;-146.72;55.14
40994;BME280;26722;43.212;27.932;2023-04-03T06:00:15;55086.53;;;-146.72;55.08
40994;BME280;26722;43.212;27.932;2023-04-03T06:02:41;55069.66;;;-146.72;55.06
40994;BME280;26722;43.212;27.932;2023-04-03T06:05:08;55069.66;;;-146.72;53.97
40994;BME280;26722;43.212;27.932;2023-04-03T06:07:34;55063.31;;;-146.72;54.00
40994;BME280;26722;43.212;27.932;2023-04-03T06:10:00;55048.53;;;-146.72;53.34
40994;BME280;26722;43.212;27.932;2023-04-03T06:12:27;55059.09;;;-146.72;52.94
40994;BME280;26722;43.212;27.932;2023-04-03T06:14:54;55046.41;;;-146.72;52.10
40994;BME280;26722;43.212;27.932;2023-04-03T06:17:20;55065.41;;;-146.72;51.57
40994;BME280;26722;43.212;27.932;2023-04-03T06:19:46;55065.41;;;-146.72;51.30
40994;BME280;26722;43.212;27.932;2023-04-03T06:22:11;55040.09;;;-146.72;50.75
40994;BME280;26722;43.212;27.932;2023-04-03T06:24:37;55044.31;;;-146.72;50.45
40994;BME280;26722;43.212;27.932;2023-04-03T06:27:03;55018.97;;;-146.72;49.60
40994;BME280;26722;43.212;27.932;2023-04-03T06:29:29;55031.66;;;-146.72;49.48
40994;BME280;26722;43.212;27.932;2023-04-03T06:31:55;55023.19;;;-146.72;48.58
40994;BME280;26722;43.212;27.932;2023-04-03T06:34:20;54997.88;;;-146.72;47.71
40994;BME280;26722;43.212;27.932;2023-04-03T06:36:46;54999.97;;;-146.72;47.12
40994;BME280;26722;43.212;27.932;2023-04-03T06:39:17;55002.09;;;-146.72;46.89
40994;BME280;26722;43.212;27.932;2023-04-03T06:41:45;54997.88;;;-146.72;46.50
40994;BME280;26722;43.212;27.932;2023-04-03T06:44:11;55006.31;;;-146.72;46.21
40994;BME280;26722;43.212;27.932;2023-04-03T06:46:38;55002.09;;;-146.72;46.61
40994;BME280;26722;43.212;27.932;2023-04-03T06:49:04;55014.75;;;-146.72;46.18
40994;BME280;26722;43.212;27.932;2023-04-03T06:51:32;55016.88;;;-146.72;46.91
40994;BME280;26722;43.212;27.932;2023-04-03T06:53:59;54989.41;;;-146.72;47.06
40994;BME280;26722;43.212;27.932;2023-04-03T06:56:26;54997.88;;;-146.72;47.43
40994;BME280;26722;43.212;27.932;2023-04-03T06:58:53;54997.88;;;-146.72;46.45
40994;BME280;26722;43.212;27.932;2023-04-03T07:01:20;55006.31;;;-146.72;45.81
40994;BME280;26722;43.212;27.932;2023-04-03T07:03:47;54989.41;;;-146.72;44.92
40994;BME280;26722;43.212;27.932;2023-04-03T07:06:14;54989.41;;;-146.72;44.88
40994;BME280;26722;43.212;27.932;2023-04-03T07:08:41;54983.09;;;-146.72;45.03
40994;BME280;26722;43.212;27.932;2023-04-03T07:11:08;54980.97;;;-146.72;44.87
40994;BME280;26722;43.212;27.932;2023-04-03T07:13:34;55002.09;;;-146.72;44.53
40994;BME280;26722;43.212;27.932;2023-04-03T07:16:00;54987.31;;;-146.72;44.44
40994;BME280;26722;43.212;27.932;2023-04-03T07:18:26;54968.31;;;-146.72;43.85
40994;BME280;26722;43.212;27.932;2023-04-03T07:20:52;54968.31;;;-146.72;43.61
40994;BME280;26722;43.212;27.932;2023-04-03T07:23:18;54959.88;;;-146.72;43.64
40994;BME280;26722;43.212;27.932;2023-04-03T07:25:45;54987.31;;;-146.72;43.88
40994;BME280;26722;43.212;27.932;2023-04-03T07:28:12;54978.88;;;-146.72;44.51
40994;BME280;26722;43.212;27.932;2023-04-03T07:30:44;54989.41;;;-146.72;44.49
40994;BME280;26722;43.212;27.932;2023-04-03T07:33:11;54995.75;;;-146.72;44.00
40994;BME280;26722;43.212;27.932;2023-04-03T07:35:37;54968.31;;;-146.72;44.22
40994;BME280;26722;43.212;27.932;2023-04-03T07:38:03;54972.53;;;-146.72;43.97
40994;BME280;26722;43.212;27.932;2023-04-03T07:40:28;54966.19;;;-146.72;43.51
40994;BME280;26722;43.212;27.932;2023-04-03T07:42:54;54959.88;;;-146.72;43.51
40994;BME280;26722;43.212;27.932;2023-04-03T07:45:21;54957.75;;;-146.72;43.28
40994;BME280;26722;43.212;27.932;2023-04-03T07:47:48;54966.19;;;-146.72;43.12
40994;BME280;26722;43.212;27.932;2023-04-03T07:50:14;54959.88;;;-146.72;43.17
40994;BME280;26722;43.212;27.932;2023-04-03T07:52:40;54974.63;;;-146.72;43.30
40994;BME280;26722;43.212;27.932;2023-04-03T07:55:06;54995.75;;;-146.72;43.25
40994;BME280;26722;43.212;27.932;2023-04-03T07:57:31;54974.63;;;-146.72;43.32
40994;BME280;26722;43.212;27.932;2023-04-03T07:59:57;54989.41;;;-146.72;43.47
40994;BME280;26722;43.212;27.932;2023-04-03T08:02:23;54970.41;;;-146.72;43.17
40994;BME280;26722;43.212;27.932;2023-04-03T08:04:48;54983.09;;;-146.72;43.07
40994;BME280;26722;43.212;27.932;2023-04-03T08:07:14;54976.75;;;-146.72;43.17
40994;BME280;26722;43.212;27.932;2023-04-03T08:09:39;54972.53;;;-146.72;43.19
40994;BME280;26722;43.212;27.932;2023-04-03T08:12:05;54968.31;;;-146.72;43.03
40994;BME280;26722;43.212;27.932;2023-04-03T08:14:32;55002.09;;;-146.72;43.25
40994;BME280;26722;43.212;27.932;2023-04-03T08:17:00;55002.09;;;-146.72;43.59
40994;BME280;26722;43.212;27.932;2023-04-03T08:19:26;54976.75;;;-146.72;43.89
40994;BME280;26722;43.212;27.932;2023-04-03T08:21:53;54985.19;;;-146.72;44.35
40994;BME280;26722;43.212;27.932;2023-04-03T08:24:19;55006.31;;;-146.72;44.26
40994;BME280;26722;43.212;27.932;2023-04-03T08:26:45;55025.31;;;-146.72;44.67
40994;BME280;26722;43.212;27.932;2023-04-03T08:29:11;54968.31;;;-146.72;44.44
40994;BME280;26722;43.212;27.932;2023-04-03T08:31:36;54991.53;;;-146.72;44.38
40994;BME280;26722;43.212;27.932;2023-04-03T08:34:02;54987.31;;;-146.72;44.82
40994;BME280;26722;43.212;27.932;2023-04-03T08:36:28;55004.19;;;-146.72;44.60
40994;BME280;26722;43.212;27.932;2023-04-03T08:38:55;54976.75;;;-146.72;44.81
40994;BME280;26722;43.212;27.932;2023-04-03T08:46:38;54980.97;;;-146.72;44.59
40994;BME280;26722;43.212;27.932;2023-04-03T08:49:14;54999.97;;;-146.72;44.90
40994;BME280;26722;43.212;27.932;2023-04-03T08:51:46;54974.63;;;-146.72;44.85
40994;BME280;26722;43.212;27.932;2023-04-03T08:57:00;54978.88;;;-146.72;45.27
40994;BME280;26722;43.212;27.932;2023-04-03T08:59:30;54968.31;;;-146.72;45.10
40994;BME280;26722;43.212;27.932;2023-04-03T09:01:59;54968.31;;;-146.72;45.07
40994;BME280;26722;43.212;27.932;2023-04-03T09:04:27;54966.19;;;-146.72;44.65
40994;BME280;26722;43.212;27.932;2023-04-03T09:07:06;54987.31;;;-146.72;44.71
40994;BME280;26722;43.212;27.932;2023-04-03T09:09:37;54976.75;;;-146.72;44.62
40994;BME280;26722;43.212;27.932;2023-04-03T09:12:17;54980.97;;;-146.72;45.37
40994;BME280;26722;43.212;27.932;2023-04-03T09:20:21;54976.75;;;-146.72;46.54
40994;BME280;26722;43.212;27.932;2023-04-03T09:22:51;54976.75;;;-146.72;47.67
40994;BME280;26722;43.212;27.932;2023-04-03T09:25:27;54974.63;;;-146.72;48.59
40994;BME280;26722;43.212;27.932;2023-04-03T09:27:54;54999.97;;;-146.72;49.51
40994;BME280;26722;43.212;27.932;2023-04-03T09:30:25;55002.09;;;-146.72;50.85
40994;BME280;26722;43.212;27.932;2023-04-03T09:32:53;54997.88;;;-146.72;52.15
40994;BME280;26722;43.212;27.932;2023-04-03T09:35:36;55018.97;;;-146.72;53.12
40994;BME280;26722;43.212;27.932;2023-04-03T09:40:39;55016.88;;;-146.72;53.87
40994;BME280;26722;43.212;27.932;2023-04-03T09:43:35;55010.53;;;-146.72;54.87
40994;BME280;26722;43.212;27.932;2023-04-03T09:46:33;55021.09;;;-146.72;55.14
40994;BME280;26722;43.212;27.932;2023-04-03T09:49:01;55023.19;;;-146.72;55.62
40994;BME280;26722;43.212;27.932;2023-04-03T09:51:29;55027.41;;;-146.72;55.69
40994;BME280;26722;43.212;27.932;2023-04-03T09:53:55;55040.09;;;-146.72;55.37
40994;BME280;26722;43.212;27.932;2023-04-03T09:56:29;55023.19;;;-146.72;55.54
40994;BME280;26722;43.212;27.932;2023-04-03T10:01:28;55029.53;;;-146.72;55.77
40994;BME280;26722;43.212;27.932;2023-04-03T10:04:18;55031.66;;;-146.72;55.92
40994;BME280;26722;43.212;27.932;2023-04-03T10:06:55;55048.53;;;-146.72;57.05
40994;BME280;26722;43.212;27.932;2023-04-03T10:09:33;55031.66;;;-146.72;56.80
40994;BME280;26722;43.212;27.932;2023-04-03T10:14:28;55027.41;;;-146.72;56.48
40994;BME280;26722;43.212;27.932;2023-04-03T10:17:18;55044.31;;;-146.72;56.72
40994;BME280;26722;43.212;27.932;2023-04-03T10:28:34;55023.19;;;-146.72;56.42
40994;BME280;26722;43.212;27.932;2023-04-03T10:31:25;55048.53;;;-146.72;55.13
40994;BME280;26722;43.212;27.932;2023-04-03T10:36:42;55035.88;;;-146.72;54.28
40994;BME280;26722;43.212;27.932;2023-04-03T10:42:34;55037.97;;;-146.72;52.80
40994;BME280;26722;43.212;27.932;2023-04-03T10:56:18;55023.19;;;-146.72;51.43
40994;BME280;26722;43.212;27.932;2023-04-03T10:58:51;55004.19;;;-146.72;51.74
40994;BME280;26722;43.212;27.932;2023-04-03T11:01:26;55040.09;;;-146.72;51.61
40994;BME280;26722;43.212;27.932;2023-04-03T11:03:58;55027.41;;;-146.72;51.86
40994;BME280;26722;43.212;27.932;2023-04-03T11:06:26;55018.97;;;-146.72;52.45
40994;BME280;26722;43.212;27.932;2023-04-03T11:09:01;55056.97;;;-146.72;53.54
40994;BME280;26722;43.212;27.932;2023-04-03T11:11:38;55040.09;;;-146.72;53.71
40994;BME280;26722;43.212;27.932;2023-04-03T11:14:33;55063.31;;;-146.72;55.17
40994;BME280;26722;43.212;27.932;2023-04-03T11:17:09;55065.41;;;-146.72;55.64
40994;BME280;26722;43.212;27.932;2023-04-03T11:19:42;55063.31;;;-146.72;56.30
40994;BME280;26722;43.212;27.932;2023-04-03T11:22:40;55046.41;;;-146.72;56.20
40994;BME280;26722;43.212;27.932;2023-04-03T11:25:20;55061.19;;;-146.72;55.82
40994;BME280;26722;43.212;27.932;2023-04-03T11:27:59;55056.97;;;-146.72;55.79
40994;BME280;26722;43.212;27.932;2023-04-03T11:33:25;55042.19;;;-146.72;53.83
40994;BME280;26722;43.212;27.932;2023-04-03T11:35:57;55044.31;;;-146.72;54.20
40994;BME280;26722;43.212;27.932;2023-04-03T11:38:33;55040.09;;;-146.72;54.32
40994;BME280;26722;43.212;27.932;2023-04-03T11:41:03;55018.97;;;-146.72;54.39
40994;BME280;26722;43.212;27.932;2023-04-03T11:43:32;55023.19;;;-146.72;54.27
40994;BME280;26722;43.212;27.932;2023-04-03T11:46:02;55018.97;;;-146.72;54.59
40994;BME280;26722;43.212;27.932;2023-04-03T11:50:57;55061.19;;;-146.72;54.58
40994;BME280;26722;43.212;27.932;2023-04-03T11:53:39;55033.75;;;-146.72;54.16
40994;BME280;26722;43.212;27.932;2023-04-03T12:04:20;55044.31;;;-146.72;55.29
40994;BME280;26722;43.212;27.932;2023-04-03T12:09:35;55065.41;;;-146.72;56.10
40994;BME280;26722;43.212;27.932;2023-04-03T12:12:35;55048.53;;;-146.72;56.64
40994;BME280;26722;43.212;27.932;2023-04-03T12:15:23;55059.09;;;-146.72;56.64
40994;BME280;26722;43.212;27.932;2023-04-03T12:17:50;55052.75;;;-146.72;56.69
40994;BME280;26722;43.212;27.932;2023-04-03T12:23:32;55048.53;;;-146.72;57.40
40994;BME280;26722;43.212;27.932;2023-04-03T12:26:05;55035.88;;;-146.72;58.24
40994;BME280;26722;43.212;27.932;2023-04-03T12:28:39;55048.53;;;-146.72;59.17
40994;BME280;26722;43.212;27.932;2023-04-03T12:31:05;55061.19;;;-146.72;60.07
40994;BME280;26722;43.212;27.932;2023-04-03T12:36:22;55065.41;;;-146.72;61.04
40994;BME280;26722;43.212;27.932;2023-04-03T12:39:06;55080.19;;;-146.72;62.06
40994;BME280;26722;43.212;27.932;2023-04-03T12:44:43;55067.53;;;-146.72;62.28
40994;BME280;26722;43.212;27.932;2023-04-03T12:49:49;55065.41;;;-146.72;60.27
40994;BME280;26722;43.212;27.932;2023-04-03T12:54:48;55069.66;;;-146.72;58.76
40994;BME280;26722;43.212;27.932;2023-04-03T12:57:20;55052.75;;;-146.72;58.66
40994;BME280;26722;43.212;27.932;2023-04-03T12:59:46;55059.09;;;-146.72;58.05
40994;BME280;26722;43.212;27.932;2023-04-03T13:02:32;55069.66;;;-146.72;58.30
40994;BME280;26722;43.212;27.932;2023-04-03T13:05:15;55071.75;;;-146.72;58.66
40994;BME280;26722;43.212;27.932;2023-04-03T13:07:42;55042.19;;;-146.72;59.55
40994;BME280;26722;43.212;27.932;2023-04-03T13:10:15;55084.44;;;-146.72;60.21
40994;BME280;26722;43.212;27.932;2023-04-03T13:12:49;55082.31;;;-146.72;61.65
40994;BME280;26722;43.212;27.932;2023-04-03T13:15:40;55094.97;;;-146.72;62.04
40994;BME280;26722;43.212;27.932;2023-04-03T13:18:28;55094.97;;;-146.72;63.34
40994;BME280;26722;43.212;27.932;2023-04-03T13:20:58;55094.97;;;-146.72;63.49
40994;BME280;26722;43.212;27.932;2023-04-03T13:23:26;55080.19;;;-146.72;63.99
40994;BME280;26722;43.212;27.932;2023-04-03T13:25:52;55088.66;;;-146.72;64.25
40994;BME280;26722;43.212;27.932;2023-04-03T13:28:21;55097.09;;;-146.72;64.32
40994;BME280;26722;43.212;27.932;2023-04-03T13:31:08;55099.19;;;-146.72;64.82
40994;BME280;26722;43.212;27.932;2023-04-03T13:34:12;55099.19;;;-146.72;64.51
40994;BME280;26722;43.212;27.932;2023-04-03T13:36:54;55094.97;;;-146.72;64.16
40994;BME280;26722;43.212;27.932;2023-04-03T13:39:27;55099.19;;;-146.72;63.39
40994;BME280;26722;43.212;27.932;2023-04-03T13:41:55;55069.66;;;-146.72;63.16
40994;BME280;26722;43.212;27.932;2023-04-03T13:47:37;55092.88;;;-146.72;63.22
40994;BME280;26722;43.212;27.932;2023-04-03T13:49:42;55078.09;;;-146.72;62.94
40994;BME280;26722;43.212;27.932;2023-04-03T13:54:48;55094.97;;;-146.72;63.86
40994;BME280;26722;43.212;27.932;2023-04-03T13:57:17;55103.44;;;-146.72;64.04
40994;BME280;26722;43.212;27.932;2023-04-03T13:59:43;55109.75;;;-146.72;64.30
40994;BME280;26722;43.212;27.932;2023-04-03T14:07:10;55090.75;;;-146.72;66.50
40994;BME280;26722;43.212;27.932;2023-04-03T14:09:36;55135.09;;;-146.72;66.93